createdAt,value
2018-06-28T00:00:29.129Z,1018.44
2018-06-28T00:01:28.930Z,1018.49
2018-06-28T00:02:28.941Z,1018.45
2018-06-28T00:03:28.934Z,1018.41
2018-06-28T00:04:28.942Z,1018.45
2018-06-28T00:05:28.954Z,1018.46
2018-06-28T00:06:28.943Z,1018.51
2018-06-28T00:07:28.950Z,1018.50
2018-06-28T00:08:29.158Z,1018.53
2018-06-28T00:09:28.964Z,1018.53
2018-06-28T00:10:28.962Z,1018.51
2018-06-28T00:11:28.964Z,1018.53
2018-06-28T00:12:28.974Z,1018.54
2018-06-28T00:13:28.967Z,1018.52
2018-06-28T00:14:29.196Z,1018.56
2018-06-28T00:15:28.975Z,1018.55
2018-06-28T00:16:29.193Z,1018.58
2018-06-28T00:17:28.981Z,1018.55
2018-06-28T00:18:29.188Z,1018.58
2018-06-28T00:19:29.000Z,1018.58
2018-06-28T00:20:28.992Z,1018.61
2018-06-28T00:21:28.995Z,1018.61
2018-06-28T00:22:29.201Z,1018.63
2018-06-28T00:23:29.002Z,1018.57
2018-06-28T00:24:29.006Z,1018.60
2018-06-28T00:25:29.209Z,1018.57
2018-06-28T00:26:29.023Z,1018.57
2018-06-28T00:27:29.029Z,1018.54
2018-06-28T00:28:29.038Z,1018.60
2018-06-28T00:29:29.261Z,1018.57
2018-06-28T00:30:29.039Z,1018.58
2018-06-28T00:31:29.259Z,1018.54
2018-06-28T00:32:29.248Z,1018.58
2018-06-28T00:33:29.036Z,1018.59
2018-06-28T00:34:29.052Z,1018.59
2018-06-28T00:35:29.244Z,1018.61
2018-06-28T00:36:29.044Z,1018.57
2018-06-28T00:37:29.064Z,1018.62
2018-06-28T00:38:29.065Z,1018.64
2018-06-28T00:39:29.057Z,1018.62
2018-06-28T00:40:29.081Z,1018.61
2018-06-28T00:41:29.264Z,1018.61
2018-06-28T00:42:29.064Z,1018.59
2018-06-28T00:43:29.093Z,1018.59
2018-06-28T00:44:29.274Z,1018.56
2018-06-28T00:45:29.084Z,1018.59
2018-06-28T00:46:29.291Z,1018.56
2018-06-28T00:47:29.299Z,1018.56
2018-06-28T00:48:29.296Z,1018.55
2018-06-28T00:49:29.097Z,1018.54
2018-06-28T00:50:29.103Z,1018.51
2018-06-28T00:51:29.298Z,1018.52
2018-06-28T00:52:29.106Z,1018.50
2018-06-28T00:53:29.117Z,1018.51
2018-06-28T00:54:29.128Z,1018.47
2018-06-28T00:55:29.114Z,1018.51
2018-06-28T00:56:29.107Z,1018.43
2018-06-28T00:57:29.134Z,1018.44
2018-06-28T00:58:29.114Z,1018.42
2018-06-28T00:59:29.117Z,1018.45
2018-06-28T01:00:29.347Z,1018.45
2018-06-28T01:01:29.125Z,1018.51
2018-06-28T01:02:29.128Z,1018.49
2018-06-28T01:03:29.353Z,1018.47
2018-06-28T01:04:29.137Z,1018.50
2018-06-28T01:05:29.350Z,1018.50
2018-06-28T01:06:29.140Z,1018.50
2018-06-28T01:07:29.157Z,1018.51
2018-06-28T01:08:29.161Z,1018.53
2018-06-28T01:09:29.347Z,1018.54
2018-06-28T01:10:29.150Z,1018.52
2018-06-28T01:11:29.165Z,1018.51
2018-06-28T01:12:29.175Z,1018.50
2018-06-28T01:13:29.161Z,1018.48
2018-06-28T01:14:29.381Z,1018.49
2018-06-28T01:15:29.186Z,1018.47
2018-06-28T01:16:29.202Z,1018.46
2018-06-28T01:17:29.183Z,1018.48
2018-06-28T01:18:29.185Z,1018.42
2018-06-28T01:19:29.184Z,1018.44
2018-06-28T01:20:29.181Z,1018.45
2018-06-28T01:21:29.185Z,1018.44
2018-06-28T01:22:29.193Z,1018.43
2018-06-28T01:23:29.194Z,1018.44
2018-06-28T01:24:29.208Z,1018.44
2018-06-28T01:25:29.402Z,1018.45
2018-06-28T01:26:29.402Z,1018.43
2018-06-28T01:27:29.209Z,1018.41
2018-06-28T01:28:29.218Z,1018.43
2018-06-28T01:29:29.421Z,1018.41
2018-06-28T01:30:29.416Z,1018.43
2018-06-28T01:31:29.234Z,1018.42
2018-06-28T01:32:29.420Z,1018.42
2018-06-28T01:33:29.220Z,1018.40
2018-06-28T01:34:29.252Z,1018.43
2018-06-28T01:35:29.243Z,1018.45
2018-06-28T01:36:29.251Z,1018.43
2018-06-28T01:37:29.434Z,1018.40
2018-06-28T01:38:29.439Z,1018.42
2018-06-28T01:39:29.256Z,1018.41
2018-06-28T01:40:29.245Z,1018.41
2018-06-28T01:41:29.269Z,1018.44
2018-06-28T01:42:29.250Z,1018.43
2018-06-28T01:43:29.254Z,1018.42
2018-06-28T01:44:29.262Z,1018.40
2018-06-28T01:45:29.474Z,1018.44
2018-06-28T01:46:29.281Z,1018.42
2018-06-28T01:47:29.263Z,1018.43
2018-06-28T01:48:29.265Z,1018.47
2018-06-28T01:49:29.286Z,1018.44
2018-06-28T01:50:29.277Z,1018.41
2018-06-28T01:51:29.476Z,1018.46
2018-06-28T01:52:29.282Z,1018.45
2018-06-28T01:53:29.294Z,1018.47
2018-06-28T01:54:29.286Z,1018.44
2018-06-28T01:55:29.294Z,1018.43
2018-06-28T01:56:29.313Z,1018.41
2018-06-28T01:57:29.292Z,1018.41
2018-06-28T01:58:29.321Z,1018.39
2018-06-28T01:59:29.300Z,1018.40
2018-06-28T02:00:29.303Z,1018.37
2018-06-28T02:01:29.309Z,1018.40
2018-06-28T02:02:29.308Z,1018.36
2018-06-28T02:03:29.311Z,1018.38
2018-06-28T02:04:29.311Z,1018.36
2018-06-28T02:05:29.315Z,1018.39
2018-06-28T02:06:29.319Z,1018.39
2018-06-28T02:07:29.322Z,1018.40
2018-06-28T02:08:29.334Z,1018.41
2018-06-28T02:09:29.348Z,1018.40
2018-06-28T02:10:29.341Z,1018.39
2018-06-28T02:11:29.349Z,1018.40
2018-06-28T02:12:29.348Z,1018.36
2018-06-28T02:13:29.341Z,1018.40
2018-06-28T02:14:29.561Z,1018.40
2018-06-28T02:15:29.357Z,1018.37
2018-06-28T02:16:29.555Z,1018.40
2018-06-28T02:17:29.571Z,1018.42
2018-06-28T02:18:29.364Z,1018.40
2018-06-28T02:19:29.369Z,1018.38
2018-06-28T02:20:29.578Z,1018.42
2018-06-28T02:21:29.367Z,1018.39
2018-06-28T02:22:29.365Z,1018.44
2018-06-28T02:23:29.385Z,1018.37
2018-06-28T02:24:29.404Z,1018.38
2018-06-28T02:25:29.375Z,1018.39
2018-06-28T02:26:29.596Z,1018.37
2018-06-28T02:27:29.381Z,1018.42
2018-06-28T02:28:29.399Z,1018.41
2018-06-28T02:29:29.590Z,1018.39
2018-06-28T02:30:29.399Z,1018.40
2018-06-28T02:31:29.392Z,1018.39
2018-06-28T02:32:29.398Z,1018.37
2018-06-28T02:33:29.397Z,1018.40
2018-06-28T02:34:29.419Z,1018.40
2018-06-28T02:35:29.419Z,1018.42
2018-06-28T02:36:29.406Z,1018.42
2018-06-28T02:37:29.632Z,1018.43
2018-06-28T02:38:29.422Z,1018.48
2018-06-28T02:39:29.630Z,1018.42
2018-06-28T02:40:29.439Z,1018.47
2018-06-28T02:41:29.435Z,1018.46
2018-06-28T02:42:29.424Z,1018.43
2018-06-28T02:43:29.628Z,1018.43
2018-06-28T02:44:29.430Z,1018.43
2018-06-28T02:45:29.450Z,1018.46
2018-06-28T02:46:29.459Z,1018.44
2018-06-28T02:47:29.441Z,1018.44
2018-06-28T02:48:29.441Z,1018.48
2018-06-28T02:49:29.445Z,1018.45
2018-06-28T02:50:29.447Z,1018.48
2018-06-28T02:51:29.461Z,1018.45
2018-06-28T02:52:29.464Z,1018.46
2018-06-28T02:53:29.455Z,1018.45
2018-06-28T02:54:29.459Z,1018.44
2018-06-28T02:55:29.708Z,1018.45
2018-06-28T02:56:29.476Z,1018.47
2018-06-28T02:57:29.676Z,1018.47
2018-06-28T02:58:29.671Z,1018.46
2018-06-28T02:59:29.487Z,1018.50
2018-06-28T03:00:29.484Z,1018.51
2018-06-28T03:01:29.479Z,1018.51
2018-06-28T03:02:29.510Z,1018.49
2018-06-28T03:03:29.483Z,1018.51
2018-06-28T03:04:29.487Z,1018.50
2018-06-28T03:05:29.488Z,1018.50
2018-06-28T03:06:29.706Z,1018.47
2018-06-28T03:07:29.699Z,1018.49
2018-06-28T03:08:29.505Z,1018.52
2018-06-28T03:09:29.516Z,1018.47
2018-06-28T03:10:29.519Z,1018.46
2018-06-28T03:11:29.509Z,1018.48
2018-06-28T03:12:29.522Z,1018.47
2018-06-28T03:13:29.516Z,1018.46
2018-06-28T03:14:29.537Z,1018.45
2018-06-28T03:15:29.529Z,1018.48
2018-06-28T03:16:29.736Z,1018.48
2018-06-28T03:17:29.537Z,1018.48
2018-06-28T03:18:29.539Z,1018.46
2018-06-28T03:19:29.542Z,1018.43
2018-06-28T03:20:29.546Z,1018.49
2018-06-28T03:21:29.537Z,1018.49
2018-06-28T03:22:29.541Z,1018.51
2018-06-28T03:23:29.556Z,1018.53
2018-06-28T03:24:29.549Z,1018.55
2018-06-28T03:25:29.777Z,1018.51
2018-06-28T03:26:29.565Z,1018.52
2018-06-28T03:27:29.567Z,1018.51
2018-06-28T03:28:29.555Z,1018.53
2018-06-28T03:29:29.568Z,1018.57
2018-06-28T03:30:29.576Z,1018.55
2018-06-28T03:31:29.582Z,1018.51
2018-06-28T03:32:29.593Z,1018.54
2018-06-28T03:33:29.582Z,1018.51
2018-06-28T03:34:29.584Z,1018.50
2018-06-28T03:35:29.798Z,1018.50
2018-06-28T03:36:29.580Z,1018.50
2018-06-28T03:37:29.786Z,1018.53
2018-06-28T03:38:29.798Z,1018.50
2018-06-28T03:39:29.600Z,1018.51
2018-06-28T03:40:29.600Z,1018.51
2018-06-28T03:41:29.594Z,1018.50
2018-06-28T03:42:29.810Z,1018.50
2018-06-28T03:43:29.806Z,1018.54
2018-06-28T03:44:29.619Z,1018.52
2018-06-28T03:45:29.617Z,1018.51
2018-06-28T03:46:29.609Z,1018.54
2018-06-28T03:47:29.617Z,1018.50
2018-06-28T03:48:29.620Z,1018.51
2018-06-28T03:49:29.619Z,1018.51
2018-06-28T03:50:29.622Z,1018.48
2018-06-28T03:51:29.843Z,1018.44
2018-06-28T03:52:29.630Z,1018.46
2018-06-28T03:53:29.848Z,1018.47
2018-06-28T03:54:29.633Z,1018.48
2018-06-28T03:55:29.637Z,1018.42
2018-06-28T03:56:29.641Z,1018.44
2018-06-28T03:57:29.676Z,1018.46
2018-06-28T03:58:29.647Z,1018.47
2018-06-28T03:59:29.675Z,1018.45
2018-06-28T04:00:29.659Z,1018.43
2018-06-28T04:01:29.662Z,1018.48
2018-06-28T04:02:29.671Z,1018.44
2018-06-28T04:03:29.674Z,1018.43
2018-06-28T04:04:29.675Z,1018.45
2018-06-28T04:05:29.670Z,1018.43
2018-06-28T04:06:29.746Z,1018.43
2018-06-28T04:07:29.710Z,1018.41
2018-06-28T04:08:29.881Z,1018.43
2018-06-28T04:09:29.681Z,1018.43
2018-06-28T04:10:29.685Z,1018.42
2018-06-28T04:11:29.691Z,1018.40
2018-06-28T04:12:29.695Z,1018.42
2018-06-28T04:13:29.912Z,1018.42
2018-06-28T04:14:29.902Z,1018.44
2018-06-28T04:15:29.904Z,1018.46
2018-06-28T04:16:29.707Z,1018.49
2018-06-28T04:17:29.713Z,1018.50
2018-06-28T04:18:29.727Z,1018.49
2018-06-28T04:19:29.714Z,1018.48
2018-06-28T04:20:29.919Z,1018.56
2018-06-28T04:21:29.724Z,1018.57
2018-06-28T04:22:29.734Z,1018.55
2018-06-28T04:23:29.758Z,1018.52
2018-06-28T04:24:29.729Z,1018.53
2018-06-28T04:25:29.738Z,1018.53
2018-06-28T04:26:29.739Z,1018.48
2018-06-28T04:27:30.072Z,1018.54
2018-06-28T04:28:29.746Z,1018.55
2018-06-28T04:29:29.764Z,1018.55
2018-06-28T04:30:29.761Z,1018.53
2018-06-28T04:31:29.969Z,1018.56
2018-06-28T04:32:29.768Z,1018.53
2018-06-28T04:33:29.962Z,1018.51
2018-06-28T04:34:29.767Z,1018.52
2018-06-28T04:35:29.778Z,1018.54
2018-06-28T04:36:29.784Z,1018.55
2018-06-28T04:37:29.993Z,1018.58
2018-06-28T04:38:29.793Z,1018.57
2018-06-28T04:39:29.783Z,1018.57
2018-06-28T04:40:29.780Z,1018.55
2018-06-28T04:41:29.786Z,1018.55
2018-06-28T04:42:29.789Z,1018.58
2018-06-28T04:43:29.793Z,1018.59
2018-06-28T04:44:29.795Z,1018.59
2018-06-28T04:45:29.824Z,1018.59
2018-06-28T04:46:29.825Z,1018.59
2018-06-28T04:47:29.822Z,1018.56
2018-06-28T04:48:29.820Z,1018.55
2018-06-28T04:49:29.823Z,1018.57
2018-06-28T04:50:29.825Z,1018.55
2018-06-28T04:51:30.049Z,1018.57
2018-06-28T04:52:30.032Z,1018.58
2018-06-28T04:53:29.824Z,1018.56
2018-06-28T04:54:29.832Z,1018.56
2018-06-28T04:55:30.036Z,1018.59
2018-06-28T04:56:29.833Z,1018.61
2018-06-28T04:57:30.042Z,1018.59
2018-06-28T04:58:29.839Z,1018.58
2018-06-28T04:59:29.854Z,1018.62
2018-06-28T05:00:30.062Z,1018.62
2018-06-28T05:01:29.877Z,1018.58
2018-06-28T05:02:30.055Z,1018.61
2018-06-28T05:03:29.871Z,1018.60
2018-06-28T05:04:29.858Z,1018.60
2018-06-28T05:05:29.862Z,1018.58
2018-06-28T05:06:30.078Z,1018.55
2018-06-28T05:07:30.087Z,1018.56
2018-06-28T05:08:29.873Z,1018.57
2018-06-28T05:09:29.878Z,1018.56
2018-06-28T05:10:29.881Z,1018.54
2018-06-28T05:11:29.883Z,1018.57
2018-06-28T05:12:29.887Z,1018.57
2018-06-28T05:13:29.903Z,1018.56
2018-06-28T05:14:29.921Z,1018.55
2018-06-28T05:15:29.897Z,1018.56
2018-06-28T05:16:29.917Z,1018.59
2018-06-28T05:17:29.914Z,1018.54
2018-06-28T05:18:30.118Z,1018.53
2018-06-28T05:19:29.922Z,1018.53
2018-06-28T05:20:29.914Z,1018.52
2018-06-28T05:21:29.920Z,1018.50
2018-06-28T05:22:29.919Z,1018.52
2018-06-28T05:23:29.925Z,1018.52
2018-06-28T05:24:29.938Z,1018.55
2018-06-28T05:25:29.939Z,1018.53
2018-06-28T05:26:30.137Z,1018.57
2018-06-28T05:27:29.936Z,1018.59
2018-06-28T05:28:29.996Z,1018.55
2018-06-28T05:29:29.942Z,1018.50
2018-06-28T05:30:29.949Z,1018.52
2018-06-28T05:31:29.972Z,1018.50
2018-06-28T05:32:30.174Z,1018.51
2018-06-28T05:33:29.969Z,1018.47
2018-06-28T05:34:29.971Z,1018.53
2018-06-28T05:35:29.975Z,1018.49
2018-06-28T05:36:29.967Z,1018.48
2018-06-28T05:37:29.985Z,1018.45
2018-06-28T05:38:30.180Z,1018.48
2018-06-28T05:39:29.991Z,1018.50
2018-06-28T05:40:30.196Z,1018.44
2018-06-28T05:41:30.203Z,1018.44
2018-06-28T05:42:29.991Z,1018.41
2018-06-28T05:43:29.992Z,1018.43
2018-06-28T05:44:30.208Z,1018.47
2018-06-28T05:45:30.000Z,1018.44
2018-06-28T05:46:30.004Z,1018.47
2018-06-28T05:47:30.007Z,1018.46
2018-06-28T05:48:30.035Z,1018.47
2018-06-28T05:49:30.017Z,1018.46
2018-06-28T05:50:30.219Z,1018.49
2018-06-28T05:51:30.223Z,1018.47
2018-06-28T05:52:30.034Z,1018.46
2018-06-28T05:53:30.089Z,1018.46
2018-06-28T05:54:30.243Z,1018.46
2018-06-28T05:55:30.037Z,1018.45
2018-06-28T05:56:30.041Z,1018.47
2018-06-28T05:57:30.066Z,1018.44
2018-06-28T05:58:30.283Z,1018.43
2018-06-28T05:59:30.062Z,1018.41
2018-06-28T06:00:30.064Z,1018.39
2018-06-28T06:01:30.143Z,1018.40
2018-06-28T06:02:30.088Z,1018.38
2018-06-28T06:03:30.269Z,1018.37
2018-06-28T06:04:30.096Z,1018.37
2018-06-28T06:05:30.074Z,1018.38
2018-06-28T06:06:30.076Z,1018.39
2018-06-28T06:07:30.081Z,1018.44
2018-06-28T06:08:30.081Z,1018.43
2018-06-28T06:09:30.291Z,1018.46
2018-06-28T06:10:30.093Z,1018.49
2018-06-28T06:11:30.094Z,1018.44
2018-06-28T06:12:30.309Z,1018.46
2018-06-28T06:13:30.102Z,1018.48
2018-06-28T06:14:30.121Z,1018.50
2018-06-28T06:15:30.139Z,1018.49
2018-06-28T06:16:30.324Z,1018.49
2018-06-28T06:17:30.317Z,1018.45
2018-06-28T06:18:30.118Z,1018.46
2018-06-28T06:19:30.136Z,1018.46
2018-06-28T06:20:30.331Z,1018.49
2018-06-28T06:21:30.139Z,1018.44
2018-06-28T06:22:30.136Z,1018.45
2018-06-28T06:23:30.138Z,1018.46
2018-06-28T06:24:30.141Z,1018.44
2018-06-28T06:25:30.154Z,1018.48
2018-06-28T06:26:30.333Z,1018.46
2018-06-28T06:27:30.330Z,1018.50
2018-06-28T06:28:30.159Z,1018.53
2018-06-28T06:29:30.269Z,1018.59
2018-06-28T06:30:30.370Z,1018.56
2018-06-28T06:31:30.179Z,1018.56
2018-06-28T06:32:30.387Z,1018.54
2018-06-28T06:33:30.204Z,1018.50
2018-06-28T06:34:30.180Z,1018.50
2018-06-28T06:35:30.183Z,1018.52
2018-06-28T06:36:30.390Z,1018.53
2018-06-28T06:37:30.201Z,1018.53
2018-06-28T06:38:30.195Z,1018.48
2018-06-28T06:39:30.404Z,1018.49
2018-06-28T06:40:30.202Z,1018.50
2018-06-28T06:41:30.206Z,1018.51
2018-06-28T06:42:30.211Z,1018.55
2018-06-28T06:43:30.214Z,1018.58
2018-06-28T06:44:30.218Z,1018.54
2018-06-28T06:45:30.222Z,1018.56
2018-06-28T06:46:30.227Z,1018.57
2018-06-28T06:47:30.238Z,1018.51
2018-06-28T06:48:30.234Z,1018.54
2018-06-28T06:49:30.452Z,1018.54
2018-06-28T06:50:30.243Z,1018.53
2018-06-28T06:51:30.451Z,1018.51
2018-06-28T06:52:30.455Z,1018.57
2018-06-28T06:53:30.255Z,1018.56
2018-06-28T06:54:30.259Z,1018.56
2018-06-28T06:55:30.286Z,1018.54
2018-06-28T06:56:30.267Z,1018.51
2018-06-28T06:57:30.309Z,1018.49
2018-06-28T06:58:30.273Z,1018.52
2018-06-28T06:59:30.288Z,1018.56
2018-06-28T07:00:30.412Z,1018.52
2018-06-28T07:01:30.488Z,1018.50
2018-06-28T07:02:30.493Z,1018.47
2018-06-28T07:03:30.341Z,1018.43
2018-06-28T07:04:30.322Z,1018.47
2018-06-28T07:05:30.518Z,1018.44
2018-06-28T07:06:30.307Z,1018.40
2018-06-28T07:07:30.311Z,1018.38
2018-06-28T07:08:30.329Z,1018.41
2018-06-28T07:09:30.333Z,1018.38
2018-06-28T07:10:30.409Z,1018.45
2018-06-28T07:11:30.329Z,1018.41
2018-06-28T07:12:30.333Z,1018.41
2018-06-28T07:13:30.539Z,1018.41
2018-06-28T07:14:30.351Z,1018.43
2018-06-28T07:15:30.345Z,1018.47
2018-06-28T07:16:30.348Z,1018.46
2018-06-28T07:17:30.379Z,1018.52
2018-06-28T07:18:30.376Z,1018.51
2018-06-28T07:19:30.374Z,1018.45
2018-06-28T07:20:30.377Z,1018.46
2018-06-28T07:21:30.395Z,1018.49
2018-06-28T07:22:30.372Z,1018.44
2018-06-28T07:23:30.389Z,1018.48
2018-06-28T07:24:30.398Z,1018.50
2018-06-28T07:25:30.398Z,1018.51
2018-06-28T07:26:30.390Z,1018.50
2018-06-28T07:27:30.394Z,1018.52
2018-06-28T07:28:30.707Z,1018.54
2018-06-28T07:29:30.413Z,1018.53
2018-06-28T07:30:30.406Z,1018.51
2018-06-28T07:31:30.412Z,1018.53
2018-06-28T07:32:30.622Z,1018.59
2018-06-28T07:33:30.419Z,1018.51
2018-06-28T07:34:30.640Z,1018.55
2018-06-28T07:35:30.461Z,1018.54
2018-06-28T07:36:30.439Z,1018.56
2018-06-28T07:37:30.439Z,1018.56
2018-06-28T07:38:30.444Z,1018.56
2018-06-28T07:39:30.446Z,1018.58
2018-06-28T07:40:30.450Z,1018.60
2018-06-28T07:41:30.588Z,1018.57
2018-06-28T07:42:30.490Z,1018.58
2018-06-28T07:43:30.475Z,1018.55
2018-06-28T07:44:30.672Z,1018.58
2018-06-28T07:45:30.487Z,1018.60
2018-06-28T07:46:30.478Z,1018.60
2018-06-28T07:47:30.492Z,1018.63
2018-06-28T07:48:30.487Z,1018.60
2018-06-28T07:49:30.697Z,1018.62
2018-06-28T07:50:30.495Z,1018.60
2018-06-28T07:51:30.702Z,1018.55
2018-06-28T07:52:30.505Z,1018.59
2018-06-28T07:53:30.523Z,1018.64
2018-06-28T07:54:30.541Z,1018.63
2018-06-28T07:55:30.532Z,1018.65
2018-06-28T07:56:30.522Z,1018.61
2018-06-28T07:57:30.542Z,1018.64
2018-06-28T07:58:30.733Z,1018.61
2018-06-28T07:59:30.556Z,1018.62
2018-06-28T08:00:30.543Z,1018.66
2018-06-28T08:01:30.545Z,1018.63
2018-06-28T08:02:30.554Z,1018.59
2018-06-28T08:03:30.567Z,1018.58
2018-06-28T08:04:30.588Z,1018.60
2018-06-28T08:05:30.570Z,1018.62
2018-06-28T08:06:30.582Z,1018.57
2018-06-28T08:07:30.591Z,1018.57
2018-06-28T08:08:30.607Z,1018.61
2018-06-28T08:09:30.808Z,1018.57
2018-06-28T08:10:30.795Z,1018.56
2018-06-28T08:11:30.836Z,1018.57
2018-06-28T08:12:30.596Z,1018.57
2018-06-28T08:13:30.609Z,1018.52
2018-06-28T08:14:30.614Z,1018.58
2018-06-28T08:15:30.625Z,1018.60
2018-06-28T08:16:30.645Z,1018.58
2018-06-28T08:17:30.622Z,1018.57
2018-06-28T08:18:30.651Z,1018.59
2018-06-28T08:19:30.648Z,1018.60
2018-06-28T08:20:30.647Z,1018.55
2018-06-28T08:21:30.876Z,1018.56
2018-06-28T08:22:30.859Z,1018.58
2018-06-28T08:23:30.665Z,1018.63
2018-06-28T08:24:30.679Z,1018.61
2018-06-28T08:25:30.864Z,1018.62
2018-06-28T08:26:30.673Z,1018.60
2018-06-28T08:27:30.697Z,1018.63
2018-06-28T08:28:30.676Z,1018.64
2018-06-28T08:29:30.682Z,1018.58
2018-06-28T08:30:30.888Z,1018.63
2018-06-28T08:31:30.706Z,1018.63
2018-06-28T08:32:30.694Z,1018.64
2018-06-28T08:33:30.698Z,1018.60
2018-06-28T08:34:30.716Z,1018.59
2018-06-28T08:35:30.923Z,1018.60
2018-06-28T08:36:30.725Z,1018.60
2018-06-28T08:37:30.736Z,1018.61
2018-06-28T08:38:30.740Z,1018.60
2018-06-28T08:39:30.746Z,1018.62
2018-06-28T08:40:30.939Z,1018.69
2018-06-28T08:41:30.739Z,1018.68
2018-06-28T08:42:30.744Z,1018.67
2018-06-28T08:43:30.762Z,1018.65
2018-06-28T08:44:30.755Z,1018.65
2018-06-28T08:45:30.761Z,1018.61
2018-06-28T08:46:30.969Z,1018.64
2018-06-28T08:47:30.801Z,1018.62
2018-06-28T08:48:30.979Z,1018.61
2018-06-28T08:49:31.006Z,1018.63
2018-06-28T08:50:30.786Z,1018.63
2018-06-28T08:51:30.792Z,1018.59
2018-06-28T08:52:30.808Z,1018.62
2018-06-28T08:53:30.814Z,1018.56
2018-06-28T08:54:31.013Z,1018.55
2018-06-28T08:55:30.822Z,1018.59
2018-06-28T08:56:30.816Z,1018.55
2018-06-28T08:57:30.889Z,1018.54
2018-06-28T08:58:30.852Z,1018.59
2018-06-28T08:59:30.844Z,1018.55
2018-06-28T09:00:30.850Z,1018.51
2018-06-28T09:01:30.843Z,1018.49
2018-06-28T09:02:30.864Z,1018.52
2018-06-28T09:03:30.867Z,1018.52
2018-06-28T09:04:30.871Z,1018.51
2018-06-28T09:05:30.866Z,1018.50
2018-06-28T09:06:30.882Z,1018.57
2018-06-28T09:07:30.890Z,1018.53
2018-06-28T09:08:30.881Z,1018.46
2018-06-28T09:09:30.887Z,1018.50
2018-06-28T09:10:30.897Z,1018.43
2018-06-28T09:11:30.897Z,1018.49
2018-06-28T09:12:30.901Z,1018.46
2018-06-28T09:13:30.908Z,1018.46
2018-06-28T09:14:30.911Z,1018.43
2018-06-28T09:15:30.921Z,1018.48
2018-06-28T09:16:30.939Z,1018.50
2018-06-28T09:17:30.930Z,1018.45
2018-06-28T09:18:30.934Z,1018.44
2018-06-28T09:19:30.942Z,1018.49
2018-06-28T09:20:30.956Z,1018.50
2018-06-28T09:21:30.952Z,1018.44
2018-06-28T09:22:30.977Z,1018.43
2018-06-28T09:23:30.973Z,1018.40
2018-06-28T09:24:30.969Z,1018.44
2018-06-28T09:25:30.973Z,1018.41
2018-06-28T09:26:30.990Z,1018.38
2018-06-28T09:27:30.986Z,1018.44
2018-06-28T09:28:30.990Z,1018.42
2018-06-28T09:29:31.009Z,1018.44
2018-06-28T09:30:31.005Z,1018.47
2018-06-28T09:31:31.008Z,1018.40
2018-06-28T09:32:31.014Z,1018.41
2018-06-28T09:33:31.023Z,1018.37
2018-06-28T09:34:31.031Z,1018.40
2018-06-28T09:35:31.031Z,1018.45
2018-06-28T09:36:31.036Z,1018.38
2018-06-28T09:37:31.042Z,1018.34
2018-06-28T09:38:31.048Z,1018.40
2018-06-28T09:39:31.050Z,1018.36
2018-06-28T09:40:31.064Z,1018.37
2018-06-28T09:41:31.073Z,1018.40
2018-06-28T09:42:31.066Z,1018.34
2018-06-28T09:43:31.071Z,1018.31
2018-06-28T09:44:31.082Z,1018.32
2018-06-28T09:45:31.110Z,1018.31
2018-06-28T09:46:31.097Z,1018.32
2018-06-28T09:47:31.115Z,1018.20
2018-06-28T09:48:31.119Z,1018.27
2018-06-28T09:49:31.114Z,1018.27
2018-06-28T09:50:31.108Z,1018.22
2018-06-28T09:51:31.145Z,1018.18
2018-06-28T09:52:31.126Z,1018.22
2018-06-28T09:53:31.147Z,1018.22
2018-06-28T09:54:31.145Z,1018.23
2018-06-28T09:55:31.134Z,1018.22
2018-06-28T09:56:31.142Z,1018.19
2018-06-28T09:57:31.143Z,1018.21
2018-06-28T09:58:31.160Z,1018.16
2018-06-28T09:59:31.155Z,1018.19
2018-06-28T10:00:31.254Z,1018.15
2018-06-28T10:01:31.177Z,1018.13
2018-06-28T10:02:31.174Z,1018.15
2018-06-28T10:03:31.189Z,1018.14
2018-06-28T10:04:31.182Z,1018.18
2018-06-28T10:05:31.192Z,1018.15
2018-06-28T10:06:31.196Z,1018.11
2018-06-28T10:07:31.228Z,1018.17
2018-06-28T10:08:31.210Z,1018.11
2018-06-28T10:09:31.225Z,1018.13
2018-06-28T10:10:31.241Z,1018.11
2018-06-28T10:11:31.232Z,1018.12
2018-06-28T10:12:31.230Z,1018.15
2018-06-28T10:13:31.253Z,1018.08
2018-06-28T10:14:31.240Z,1018.11
2018-06-28T10:15:31.253Z,1018.08
2018-06-28T10:16:31.261Z,1018.06
2018-06-28T10:17:31.267Z,1018.04
2018-06-28T10:18:31.276Z,1018.01
2018-06-28T10:19:31.289Z,1018.01
2018-06-28T10:20:31.285Z,1017.98
2018-06-28T10:21:31.284Z,1017.96
2018-06-28T10:22:31.295Z,1017.94
2018-06-28T10:23:31.297Z,1018.00
2018-06-28T10:24:31.327Z,1018.03
2018-06-28T10:25:31.298Z,1017.96
2018-06-28T10:26:31.315Z,1017.98
2018-06-28T10:27:31.310Z,1017.92
2018-06-28T10:28:31.328Z,1017.93
2018-06-28T10:29:31.334Z,1017.87
2018-06-28T10:30:31.338Z,1017.85
2018-06-28T10:31:31.347Z,1017.79
2018-06-28T10:32:31.338Z,1017.80
2018-06-28T10:33:31.351Z,1017.77
2018-06-28T10:34:31.350Z,1017.75
2018-06-28T10:35:31.383Z,1017.79
2018-06-28T10:36:31.369Z,1017.78
2018-06-28T10:37:31.376Z,1017.78
2018-06-28T10:38:31.369Z,1017.83
2018-06-28T10:39:31.388Z,1017.78
2018-06-28T10:40:31.396Z,1017.76
2018-06-28T10:41:31.399Z,1017.68
2018-06-28T10:42:31.392Z,1017.64
2018-06-28T10:43:31.397Z,1017.68
2018-06-28T10:44:31.428Z,1017.66
2018-06-28T10:45:31.425Z,1017.67
2018-06-28T10:46:31.423Z,1017.73
2018-06-28T10:47:31.477Z,1017.73
2018-06-28T10:48:31.438Z,1017.76
2018-06-28T10:49:31.431Z,1017.79
2018-06-28T10:50:31.442Z,1017.72
2018-06-28T10:51:31.442Z,1017.78
2018-06-28T10:52:31.462Z,1017.71
2018-06-28T10:53:31.666Z,1017.68
2018-06-28T10:54:31.473Z,1017.70
2018-06-28T10:55:31.464Z,1017.73
2018-06-28T10:56:31.557Z,1017.67
2018-06-28T10:57:31.498Z,1017.69
2018-06-28T10:58:31.494Z,1017.64
2018-06-28T10:59:31.530Z,1017.66
2018-06-28T11:00:31.491Z,1017.66
2018-06-28T11:01:31.510Z,1017.69
2018-06-28T11:02:31.503Z,1017.67
2018-06-28T11:03:31.524Z,1017.63
2018-06-28T11:04:31.529Z,1017.60
2018-06-28T11:05:31.577Z,1017.61
2018-06-28T11:06:31.527Z,1017.58
2018-06-28T11:07:31.596Z,1017.55
2018-06-28T11:08:31.539Z,1017.54
2018-06-28T11:09:31.555Z,1017.53
2018-06-28T11:10:31.559Z,1017.50
2018-06-28T11:11:31.558Z,1017.49
2018-06-28T11:12:31.559Z,1017.51
2018-06-28T11:13:31.583Z,1017.43
2018-06-28T11:14:31.590Z,1017.45
2018-06-28T11:15:31.602Z,1017.43
2018-06-28T11:16:31.662Z,1017.44
2018-06-28T11:17:31.590Z,1017.39
2018-06-28T11:18:31.650Z,1017.39
2018-06-28T11:19:31.604Z,1017.37
2018-06-28T11:20:31.617Z,1017.40
2018-06-28T11:21:31.617Z,1017.45
2018-06-28T11:22:31.632Z,1017.42
2018-06-28T11:23:31.652Z,1017.40
2018-06-28T11:24:31.640Z,1017.35
2018-06-28T11:25:31.635Z,1017.34
2018-06-28T11:26:31.719Z,1017.37
2018-06-28T11:27:31.660Z,1017.37
2018-06-28T11:28:31.677Z,1017.39
2018-06-28T11:29:31.657Z,1017.37
2018-06-28T11:30:31.687Z,1017.35
2018-06-28T11:31:31.679Z,1017.33
2018-06-28T11:32:31.684Z,1017.29
2018-06-28T11:33:31.689Z,1017.31
2018-06-28T11:34:31.908Z,1017.38
2018-06-28T11:35:31.722Z,1017.27
2018-06-28T11:36:31.912Z,1017.28
2018-06-28T11:37:31.728Z,1017.26
2018-06-28T11:38:31.708Z,1017.27
2018-06-28T11:39:31.725Z,1017.31
2018-06-28T11:40:31.728Z,1017.25
2018-06-28T11:41:31.735Z,1017.24
2018-06-28T11:42:31.948Z,1017.25
2018-06-28T11:43:31.736Z,1017.14
2018-06-28T11:44:31.963Z,1017.15
2018-06-28T11:45:31.748Z,1017.12
2018-06-28T11:46:31.754Z,1017.13
2018-06-28T11:47:31.769Z,1017.12
2018-06-28T11:48:31.984Z,1017.11
2018-06-28T11:49:31.779Z,1017.10
2018-06-28T11:50:31.775Z,1017.13
2018-06-28T11:51:31.794Z,1017.10
2018-06-28T11:52:31.791Z,1017.08
2018-06-28T11:53:31.806Z,1017.12
2018-06-28T11:54:31.818Z,1017.13
2018-06-28T11:55:31.803Z,1017.12
2018-06-28T11:56:31.823Z,1017.05
2018-06-28T11:57:31.827Z,1017.07
2018-06-28T11:58:31.822Z,1016.97
2018-06-28T11:59:31.840Z,1017.01
2018-06-28T12:00:31.832Z,1017.03
2018-06-28T12:01:31.848Z,1017.02
2018-06-28T12:02:32.060Z,1016.97
2018-06-28T12:03:32.050Z,1017.00
2018-06-28T12:04:32.072Z,1016.99
2018-06-28T12:05:31.865Z,1017.02